Terminal Aerodrome Forecast
Issued by NWS

Home | Current Version | Previous Version | Text Only | Print | Product List | Glossary On
Versions: 1 2 3 4 5 6 7 8 9 10 11 12 13 14 15 16 17 18 19 20 21 22 23 24 25 26 27
000
FTUS46 KOTX 050531
TAFMWH
TAF
KMWH 050531Z 0506/0606 30007KT P6SM BKN200
     FM050800 26008KT P6SM SKC
     FM052000 22014G22KT P6SM FEW250
     FM060100 28019G26KT P6SM FEW060 SCT100 BKN200=

USA.gov is the U.S. government's official web portal to all federal, state and local government web resources and services.